createdAt,value
2019-04-09T00:01:26.596Z,21.35
2019-04-09T00:03:52.738Z,13.60
2019-04-09T00:06:18.835Z,12.13
2019-04-09T00:08:45.661Z,12.80
2019-04-09T00:11:11.794Z,24.43
2019-04-09T00:13:38.190Z,23.60
2019-04-09T00:16:04.779Z,33.50
2019-04-09T00:18:31.572Z,27.30
2019-04-09T00:20:57.753Z,29.10
2019-04-09T00:23:24.276Z,18.92
2019-04-09T00:25:50.943Z,14.35
2019-04-09T00:28:17.571Z,12.15
2019-04-09T00:30:43.571Z,12.73
2019-04-09T00:33:09.963Z,13.63
2019-04-09T00:35:36.645Z,10.32
2019-04-09T00:38:03.216Z,14.68
2019-04-09T00:40:28.996Z,112.00
2019-04-09T00:42:56.134Z,70.33
2019-04-09T00:45:22.384Z,65.17
2019-04-09T00:47:48.994Z,34.78
2019-04-09T00:50:14.831Z,28.02
2019-04-09T00:52:40.901Z,31.67
2019-04-09T00:55:06.806Z,23.75
2019-04-09T00:57:33.009Z,15.73
2019-04-09T00:59:59.175Z,15.10
2019-04-09T01:02:24.937Z,19.80
2019-04-09T01:04:50.767Z,13.67
2019-04-09T01:07:16.695Z,15.57
2019-04-09T01:09:43.490Z,14.03
2019-04-09T01:12:10.204Z,10.98
2019-04-09T01:14:36.327Z,15.85
2019-04-09T01:17:02.889Z,12.30
2019-04-09T01:19:28.748Z,10.45
2019-04-09T01:21:54.566Z,9.67
2019-04-09T01:24:33.174Z,11.57
2019-04-09T01:26:50.018Z,16.40
2019-04-09T01:29:20.765Z,10.75
2019-04-09T01:31:48.488Z,12.30
2019-04-09T01:34:33.232Z,12.37
2019-04-09T01:37:18.955Z,9.90
2019-04-09T01:39:58.906Z,11.90
2019-04-09T01:42:29.535Z,9.90
2019-04-09T01:45:03.358Z,16.70
2019-04-09T01:47:31.080Z,13.18
2019-04-09T01:50:05.364Z,17.20
2019-04-09T01:52:34.217Z,14.15
2019-04-09T01:55:19.454Z,25.62
2019-04-09T01:57:50.261Z,25.95
2019-04-09T02:00:18.071Z,19.65
2019-04-09T02:03:06.690Z,17.07
2019-04-09T02:05:34.422Z,10.30
2019-04-09T02:08:07.848Z,10.30
2019-04-09T02:10:39.007Z,10.40
2019-04-09T02:13:25.081Z,12.33
2019-04-09T02:15:56.182Z,13.43
2019-04-09T02:18:24.193Z,15.72
2019-04-09T02:21:01.099Z,21.65
2019-04-09T02:23:41.355Z,19.35
2019-04-09T02:26:22.175Z,13.05
2019-04-09T02:32:02.078Z,11.90
2019-04-09T02:34:37.517Z,16.02
2019-04-09T02:37:13.348Z,15.83
2019-04-09T02:39:41.467Z,14.60
2019-04-09T02:42:12.553Z,17.40
2019-04-09T02:44:43.720Z,12.37
2019-04-09T02:47:23.740Z,14.20
2019-04-09T02:50:06.983Z,10.28
2019-04-09T02:52:37.970Z,10.35
2019-04-09T02:55:06.711Z,9.15
2019-04-09T02:57:49.068Z,11.85
2019-04-09T03:00:19.050Z,13.55
2019-04-09T03:02:46.781Z,10.13
2019-04-09T03:05:14.486Z,10.40
2019-04-09T03:07:44.751Z,13.90
2019-04-09T03:10:22.250Z,7.53
2019-04-09T03:13:10.117Z,10.40
2019-04-09T03:15:40.923Z,12.90
2019-04-09T03:18:08.940Z,8.25
2019-04-09T03:20:54.845Z,8.50
2019-04-09T03:23:25.593Z,8.85
2019-04-09T03:26:03.528Z,8.40
2019-04-09T03:28:47.769Z,14.10
2019-04-09T03:34:23.077Z,8.88
2019-04-09T03:36:54.117Z,7.20
2019-04-09T03:39:31.705Z,11.73
2019-04-09T03:42:17.905Z,9.38
2019-04-09T03:44:49.627Z,11.40
2019-04-09T03:47:17.743Z,9.83
2019-04-09T03:49:46.161Z,7.80
2019-04-09T03:52:16.502Z,29.87
2019-04-09T03:54:53.620Z,132.05
2019-04-09T03:57:30.774Z,70.42
2019-04-09T03:59:58.871Z,46.08
2019-04-09T04:02:38.477Z,27.07
2019-04-09T04:05:13.808Z,58.55
2019-04-09T04:07:42.079Z,67.17
2019-04-09T04:10:15.850Z,64.00
2019-04-09T04:12:55.721Z,28.45
2019-04-09T04:15:32.653Z,16.85
2019-04-09T04:18:00.935Z,47.60
2019-04-09T04:20:41.746Z,51.90
2019-04-09T04:23:24.994Z,55.58
2019-04-09T04:25:53.244Z,29.30
2019-04-09T04:28:39.318Z,23.42
2019-04-09T04:31:09.465Z,22.60
2019-04-09T04:33:39.118Z,18.87
2019-04-09T04:36:12.706Z,23.60
2019-04-09T04:38:40.751Z,30.75
2019-04-09T04:41:28.066Z,17.50
2019-04-09T04:44:12.406Z,36.77
2019-04-09T04:46:48.943Z,23.20
2019-04-09T04:49:16.625Z,19.85
2019-04-09T04:51:53.438Z,22.20
2019-04-09T04:54:24.177Z,20.72
2019-04-09T04:56:52.238Z,22.65
2019-04-09T04:59:26.361Z,23.27
2019-04-09T05:01:56.388Z,22.13
2019-04-09T05:04:27.342Z,16.48
2019-04-09T05:06:58.193Z,16.77
2019-04-09T05:09:44.461Z,21.42
2019-04-09T05:12:15.243Z,21.97
2019-04-09T05:14:59.890Z,19.95
2019-04-09T05:17:28.842Z,22.35
2019-04-09T05:20:00.589Z,15.78
2019-04-09T05:22:47.287Z,19.70
2019-04-09T05:25:24.105Z,16.23
2019-04-09T05:28:04.573Z,30.85
2019-04-09T05:30:33.694Z,21.35
2019-04-09T05:33:16.642Z,24.60
2019-04-09T05:36:01.289Z,19.05
2019-04-09T05:38:44.195Z,17.32
2019-04-09T05:41:17.840Z,13.13
2019-04-09T05:44:02.888Z,20.20
2019-04-09T05:46:30.665Z,14.38
2019-04-09T05:49:07.565Z,12.73
2019-04-09T05:51:35.572Z,14.18
2019-04-09T05:54:03.543Z,17.17
2019-04-09T05:56:31.275Z,11.70
2019-04-09T05:59:15.935Z,13.20
2019-04-09T06:01:44.907Z,13.72
2019-04-09T06:04:20.000Z,15.98
2019-04-09T06:06:54.361Z,12.07
2019-04-09T06:09:29.651Z,18.45
2019-04-09T06:11:56.209Z,15.68
2019-04-09T06:14:23.139Z,44.00
2019-04-09T06:16:49.394Z,24.32
2019-04-09T06:19:15.220Z,16.87
2019-04-09T06:21:42.976Z,29.60
2019-04-09T06:24:09.017Z,15.68
2019-04-09T06:26:35.092Z,20.63
2019-04-09T06:29:13.544Z,21.10
2019-04-09T06:31:28.949Z,20.65
2019-04-09T06:33:57.238Z,19.33
2019-04-09T06:36:34.080Z,30.43
2019-04-09T06:39:01.812Z,26.07
2019-04-09T06:41:47.782Z,21.35
2019-04-09T06:46:56.000Z,15.95
2019-04-09T06:49:39.356Z,20.23
2019-04-09T06:52:11.177Z,12.68
2019-04-09T06:55:00.770Z,14.65
2019-04-09T06:57:29.724Z,13.90
2019-04-09T06:59:59.661Z,15.08
2019-04-09T07:02:30.431Z,18.05
2019-04-09T07:05:07.533Z,16.00
2019-04-09T07:07:36.148Z,16.48
2019-04-09T07:10:12.399Z,19.52
2019-04-09T07:12:55.488Z,13.43
2019-04-09T07:15:45.824Z,21.55
2019-04-09T07:18:13.659Z,22.67
2019-04-09T07:20:47.439Z,18.92
2019-04-09T07:23:15.429Z,15.53
2019-04-09T07:25:43.835Z,24.30
2019-04-09T07:28:15.123Z,13.58
2019-04-09T07:30:43.834Z,13.05
2019-04-09T07:33:19.510Z,15.45
2019-04-09T07:35:50.728Z,16.70
2019-04-09T07:38:22.543Z,21.17
2019-04-09T07:40:50.677Z,19.27
2019-04-09T07:43:24.071Z,25.40
2019-04-09T07:46:04.267Z,17.40
2019-04-09T07:48:32.348Z,12.80
2019-04-09T07:51:18.140Z,17.00
2019-04-09T07:53:49.281Z,26.10
2019-04-09T07:56:36.844Z,19.67
2019-04-09T07:59:21.369Z,20.17
2019-04-09T08:01:48.175Z,19.92
2019-04-09T08:04:24.652Z,18.12
2019-04-09T08:07:10.563Z,16.80
2019-04-09T08:09:57.695Z,20.77
2019-04-09T08:12:35.375Z,19.70
2019-04-09T08:15:04.508Z,19.27
2019-04-09T08:17:42.655Z,22.42
2019-04-09T08:20:05.742Z,20.52
2019-04-09T08:22:45.976Z,24.35
2019-04-09T08:25:23.021Z,21.33
2019-04-09T08:30:49.991Z,17.45
2019-04-09T08:33:34.811Z,19.00
2019-04-09T08:36:18.464Z,19.05
2019-04-09T08:38:52.612Z,15.93
2019-04-09T08:41:35.950Z,15.32
2019-04-09T08:44:15.572Z,18.92
2019-04-09T08:47:01.642Z,23.30
2019-04-09T08:49:32.113Z,17.40
2019-04-09T08:52:00.049Z,18.00
2019-04-09T08:54:45.364Z,14.43
2019-04-09T08:57:15.430Z,15.48
2019-04-09T08:59:45.939Z,13.25
2019-04-09T09:02:30.699Z,14.73
2019-04-09T09:05:04.342Z,13.58
2019-04-09T09:07:40.884Z,11.78
2019-04-09T09:10:24.215Z,13.78
2019-04-09T09:13:12.097Z,15.20
2019-04-09T09:15:57.537Z,14.50
2019-04-09T09:18:42.369Z,11.83
2019-04-09T09:21:29.250Z,14.03
2019-04-09T09:23:52.312Z,11.83
2019-04-09T09:26:36.469Z,11.22
2019-04-09T09:29:11.232Z,11.35
2019-04-09T09:32:00.098Z,11.97
2019-04-09T09:34:45.171Z,11.83
2019-04-09T09:37:24.620Z,12.47
2019-04-09T09:39:57.963Z,10.65
2019-04-09T09:42:34.120Z,10.23
2019-04-09T09:45:16.914Z,11.53
2019-04-09T09:47:52.200Z,10.57
2019-04-09T09:50:24.413Z,10.60
2019-04-09T09:52:54.430Z,13.87
2019-04-09T09:55:30.774Z,10.37
2019-04-09T09:57:58.734Z,9.53
2019-04-09T10:00:38.241Z,12.10
2019-04-09T10:03:19.436Z,10.60
2019-04-09T10:05:54.203Z,9.70
2019-04-09T10:08:30.018Z,9.73
2019-04-09T10:11:11.115Z,11.70
2019-04-09T10:13:54.974Z,11.10
2019-04-09T10:16:31.016Z,10.70
2019-04-09T10:19:11.377Z,7.07
2019-04-09T10:21:35.533Z,9.67
2019-04-09T10:24:27.404Z,14.10
2019-04-09T10:27:00.626Z,11.90
2019-04-09T10:29:35.180Z,11.10
2019-04-09T10:32:17.552Z,11.60
2019-04-09T10:34:45.833Z,11.90
2019-04-09T10:37:21.152Z,13.10
2019-04-09T10:40:06.564Z,12.90
2019-04-09T10:42:42.400Z,12.07
2019-04-09T10:45:11.141Z,13.30
2019-04-09T10:47:41.844Z,16.37
2019-04-09T10:50:31.548Z,15.30
2019-04-09T10:52:57.030Z,15.53
2019-04-09T10:55:37.546Z,14.93
2019-04-09T10:58:05.234Z,16.10
2019-04-09T11:00:35.181Z,16.67
2019-04-09T11:03:18.744Z,17.37
2019-04-09T11:05:51.951Z,14.87
2019-04-09T11:08:17.711Z,13.77
2019-04-09T11:11:00.808Z,16.57
2019-04-09T11:13:32.797Z,22.90
2019-04-09T11:16:16.931Z,14.80
2019-04-09T11:18:54.132Z,13.97
2019-04-09T11:21:25.413Z,18.67
2019-04-09T11:24:05.274Z,14.87
2019-04-09T11:26:45.998Z,15.40
2019-04-09T11:29:14.472Z,16.30
2019-04-09T11:31:58.138Z,18.00
2019-04-09T11:34:38.280Z,19.23
2019-04-09T11:37:23.783Z,18.17
2019-04-09T11:40:03.014Z,18.20
2019-04-09T11:42:33.788Z,19.00
2019-04-09T11:45:05.135Z,18.03
2019-04-09T11:47:42.094Z,17.33
2019-04-09T11:50:10.190Z,17.20
2019-04-09T11:52:41.333Z,22.13
2019-04-09T11:55:27.276Z,18.83
2019-04-09T11:58:01.314Z,21.80
2019-04-09T12:00:50.783Z,16.27
2019-04-09T12:03:27.370Z,15.20
2019-04-09T12:06:05.005Z,20.43
2019-04-09T12:08:39.135Z,21.33
2019-04-09T12:13:55.029Z,21.43
2019-04-09T12:16:34.383Z,16.77
2019-04-09T12:19:18.090Z,22.60
2019-04-09T12:21:55.087Z,17.83
2019-04-09T12:24:27.094Z,17.80
2019-04-09T12:27:15.768Z,15.33
2019-04-09T12:29:44.748Z,14.80
2019-04-09T12:32:24.878Z,20.77
2019-04-09T12:34:54.891Z,88.43
2019-04-09T12:37:34.506Z,19.57
2019-04-09T12:40:18.663Z,21.77
2019-04-09T12:42:58.809Z,18.83
2019-04-09T12:45:33.120Z,21.83
2019-04-09T12:48:00.812Z,27.47
2019-04-09T12:50:28.526Z,19.17
2019-04-09T12:53:08.603Z,24.50
2019-04-09T12:55:36.584Z,20.50
2019-04-09T12:58:10.616Z,21.77
2019-04-09T13:00:44.477Z,21.70
2019-04-09T13:03:13.149Z,24.20
2019-04-09T13:05:44.084Z,20.70
2019-04-09T13:08:17.892Z,22.80
2019-04-09T13:11:06.855Z,25.30
2019-04-09T13:13:51.603Z,26.53
2019-04-09T13:16:34.923Z,20.47
2019-04-09T13:19:03.032Z,20.40
2019-04-09T13:21:33.562Z,22.47
2019-04-09T13:24:16.862Z,18.43
2019-04-09T13:26:47.986Z,29.53
2019-04-09T13:29:18.841Z,22.40
2019-04-09T13:32:02.689Z,19.40
2019-04-09T13:34:39.683Z,23.80
2019-04-09T13:37:24.662Z,23.30
2019-04-09T13:40:05.833Z,25.70
2019-04-09T13:42:39.339Z,26.50
2019-04-09T13:45:11.547Z,23.77
2019-04-09T13:47:39.572Z,24.23
2019-04-09T13:50:16.746Z,26.40
2019-04-09T13:52:42.873Z,21.80
2019-04-09T13:55:12.434Z,24.07
2019-04-09T13:57:38.414Z,28.80
2019-04-09T14:00:09.963Z,25.77
2019-04-09T14:02:48.048Z,34.43
2019-04-09T14:05:08.345Z,33.43
2019-04-09T14:07:34.628Z,29.90
2019-04-09T14:10:00.596Z,27.57
2019-04-09T14:12:27.336Z,28.10
2019-04-09T14:14:53.260Z,24.17
2019-04-09T14:17:19.852Z,27.60
2019-04-09T14:19:52.928Z,28.23
2019-04-09T14:22:14.096Z,26.00
2019-04-09T14:24:40.919Z,33.00
2019-04-09T14:27:07.840Z,30.32
2019-04-09T14:29:34.684Z,39.30
2019-04-09T14:32:00.571Z,42.88
2019-04-09T14:34:26.724Z,44.57
2019-04-09T14:36:52.949Z,38.23
2019-04-09T14:39:18.851Z,27.63
2019-04-09T14:41:45.822Z,28.40
2019-04-09T14:44:12.653Z,32.87
2019-04-09T14:46:39.624Z,31.57
2019-04-09T14:49:05.826Z,29.50
2019-04-09T14:51:31.857Z,28.38
2019-04-09T14:53:57.754Z,26.55
2019-04-09T14:56:23.824Z,22.10
2019-04-09T14:58:49.654Z,21.83
2019-04-09T15:01:15.685Z,23.73
2019-04-09T15:03:42.821Z,27.45
2019-04-09T15:06:08.737Z,21.85
2019-04-09T15:08:35.625Z,18.20
2019-04-09T15:11:01.638Z,21.07
2019-04-09T15:13:28.413Z,19.93
2019-04-09T15:15:54.726Z,20.53
2019-04-09T15:18:20.928Z,30.13
2019-04-09T15:20:49.829Z,26.33
2019-04-09T15:23:15.909Z,18.60
2019-04-09T15:25:42.688Z,21.67
2019-04-09T15:28:09.440Z,26.20
2019-04-09T15:30:35.548Z,21.17
2019-04-09T15:33:01.359Z,23.03
2019-04-09T15:35:28.264Z,19.77
2019-04-09T15:37:54.486Z,23.00
2019-04-09T15:40:21.559Z,26.83
2019-04-09T15:42:48.634Z,21.33
2019-04-09T15:45:14.786Z,23.20
2019-04-09T15:47:41.296Z,25.20
2019-04-09T15:50:08.227Z,21.80
2019-04-09T15:52:34.487Z,21.10
2019-04-09T15:55:01.195Z,22.77
2019-04-09T15:57:27.805Z,21.27
2019-04-09T15:59:53.701Z,19.13
2019-04-09T16:02:20.555Z,20.73
2019-04-09T16:04:46.532Z,21.03
2019-04-09T16:07:13.404Z,20.63
2019-04-09T16:09:39.233Z,14.87
2019-04-09T16:12:05.064Z,16.40
2019-04-09T16:14:34.013Z,17.93
2019-04-09T16:17:00.903Z,18.65
2019-04-09T16:19:29.938Z,23.73
2019-04-09T16:21:55.822Z,15.03
2019-04-09T16:24:25.507Z,14.27
2019-04-09T16:26:51.439Z,11.93
2019-04-09T16:29:17.236Z,13.27
2019-04-09T16:31:43.052Z,15.60
2019-04-09T16:34:11.969Z,13.33
2019-04-09T16:36:36.655Z,11.85
2019-04-09T16:39:06.042Z,12.67
2019-04-09T16:41:32.085Z,13.20
2019-04-09T16:43:57.844Z,12.95
2019-04-09T16:46:24.020Z,11.70
2019-04-09T16:48:49.974Z,15.03
2019-04-09T16:51:19.011Z,11.90
2019-04-09T16:53:45.175Z,15.28
2019-04-09T16:56:14.235Z,18.07
2019-04-09T16:58:40.076Z,13.15
2019-04-09T17:01:07.922Z,28.30
2019-04-09T17:03:39.719Z,39.55
2019-04-09T17:06:04.681Z,19.25
2019-04-09T17:08:31.593Z,13.43
2019-04-09T17:10:57.568Z,15.03
2019-04-09T17:13:24.511Z,16.13
2019-04-09T17:15:51.721Z,17.02
2019-04-09T17:18:18.812Z,14.20
2019-04-09T17:20:45.724Z,15.63
2019-04-09T17:23:12.779Z,17.85
2019-04-09T17:25:38.729Z,14.78
2019-04-09T17:28:04.702Z,14.13
2019-04-09T17:30:30.889Z,15.25
2019-04-09T17:32:58.625Z,13.65
2019-04-09T17:35:24.894Z,14.55
2019-04-09T17:37:53.738Z,16.57
2019-04-09T17:40:19.856Z,14.15
2019-04-09T17:42:49.072Z,13.05
2019-04-09T17:45:16.011Z,10.85
2019-04-09T17:47:42.183Z,14.47
2019-04-09T17:50:08.124Z,14.43
2019-04-09T17:52:34.222Z,14.90
2019-04-09T17:55:00.890Z,11.48
2019-04-09T17:57:26.834Z,14.13
2019-04-09T17:59:55.047Z,17.50
2019-04-09T18:02:22.276Z,11.40
2019-04-09T18:04:53.517Z,14.13
2019-04-09T18:07:18.628Z,28.05
2019-04-09T18:09:45.391Z,152.13
2019-04-09T18:12:11.543Z,21.68
2019-04-09T18:14:40.965Z,12.03
2019-04-09T18:17:07.088Z,14.43
2019-04-09T18:19:33.010Z,16.45
2019-04-09T18:21:58.906Z,16.20
2019-04-09T18:24:29.474Z,15.20
2019-04-09T18:26:52.768Z,18.75
2019-04-09T18:29:18.845Z,17.75
2019-04-09T18:31:45.105Z,17.80
2019-04-09T18:34:11.259Z,19.70
2019-04-09T18:36:40.890Z,17.57
2019-04-09T18:39:09.623Z,12.40
2019-04-09T18:41:36.606Z,16.10
2019-04-09T18:44:02.716Z,14.83
2019-04-09T18:46:28.537Z,17.43
2019-04-09T18:48:54.956Z,16.53
2019-04-09T18:51:26.960Z,14.87
2019-04-09T18:53:51.422Z,13.70
2019-04-09T18:56:22.066Z,13.53
2019-04-09T18:58:49.438Z,14.20
2019-04-09T19:01:15.342Z,15.23
2019-04-09T19:03:42.197Z,18.83
2019-04-09T19:06:08.233Z,14.05
2019-04-09T19:08:34.204Z,17.20
2019-04-09T19:11:00.336Z,16.13
2019-04-09T19:13:27.035Z,13.15
2019-04-09T19:15:53.599Z,14.68
2019-04-09T19:18:20.366Z,19.45
2019-04-09T19:20:46.538Z,22.15
2019-04-09T19:23:15.682Z,16.25
2019-04-09T19:25:41.794Z,14.43
2019-04-09T19:28:10.399Z,22.82
2019-04-09T19:30:36.494Z,19.30
2019-04-09T19:33:05.658Z,15.58
2019-04-09T19:35:36.151Z,16.67
2019-04-09T19:37:59.328Z,18.27
2019-04-09T19:40:27.979Z,19.33
2019-04-09T19:42:53.885Z,24.30
2019-04-09T19:45:22.459Z,22.73
2019-04-09T19:47:49.415Z,20.90
2019-04-09T19:50:15.443Z,23.87
2019-04-09T19:52:41.243Z,22.60
2019-04-09T19:55:07.594Z,21.27
2019-04-09T19:57:33.523Z,22.50
2019-04-09T19:59:59.660Z,22.30
2019-04-09T20:02:25.699Z,23.10
2019-04-09T20:04:54.539Z,22.62
2019-04-09T20:07:20.561Z,24.20
2019-04-09T20:09:51.341Z,27.35
2019-04-09T20:12:17.406Z,23.22
2019-04-09T20:14:43.245Z,21.55
2019-04-09T20:17:10.082Z,25.13
2019-04-09T20:19:37.676Z,27.30
2019-04-09T20:22:05.263Z,27.25
2019-04-09T20:24:31.159Z,22.37
2019-04-09T20:26:56.959Z,39.77
2019-04-09T20:29:23.675Z,26.93
2019-04-09T20:31:53.480Z,26.02
2019-04-09T20:34:20.345Z,25.40
2019-04-09T20:36:47.199Z,26.50
2019-04-09T20:39:13.836Z,27.52
2019-04-09T20:41:39.792Z,25.77
2019-04-09T20:44:05.799Z,29.72
2019-04-09T20:46:35.903Z,25.80
2019-04-09T20:49:01.899Z,23.57
2019-04-09T20:51:27.698Z,26.23
2019-04-09T20:53:54.092Z,24.77
2019-04-09T20:56:20.634Z,24.07
2019-04-09T20:58:46.852Z,25.45
2019-04-09T21:01:15.301Z,29.30
2019-04-09T21:03:55.752Z,31.97
2019-04-09T21:06:20.969Z,27.27
2019-04-09T21:08:47.389Z,42.03
2019-04-09T21:11:13.717Z,26.02
2019-04-09T21:13:39.516Z,34.23
2019-04-09T21:16:06.382Z,30.97
2019-04-09T21:18:33.401Z,27.15
2019-04-09T21:20:59.562Z,31.40
2019-04-09T21:23:26.230Z,29.65
2019-04-09T21:25:52.114Z,30.45
2019-04-09T21:28:17.935Z,25.70
2019-04-09T21:30:44.334Z,25.70
2019-04-09T21:33:11.013Z,28.40
2019-04-09T21:35:37.369Z,30.95
2019-04-09T21:38:04.308Z,28.75
2019-04-09T21:40:31.207Z,28.52
2019-04-09T21:42:58.904Z,34.27
2019-04-09T21:45:25.026Z,31.75
2019-04-09T21:47:50.860Z,32.65
2019-04-09T21:50:16.780Z,32.70
2019-04-09T21:52:42.609Z,31.40
2019-04-09T21:55:11.926Z,30.50
2019-04-09T21:57:37.731Z,35.50
2019-04-09T22:00:09.646Z,32.23
2019-04-09T22:02:36.413Z,30.40
2019-04-09T22:05:03.737Z,27.80
2019-04-09T22:07:30.493Z,27.30
2019-04-09T22:09:56.799Z,32.95
2019-04-09T22:12:23.245Z,31.90
2019-04-09T22:14:50.479Z,32.67
2019-04-09T22:17:16.869Z,38.70
2019-04-09T22:19:42.978Z,28.25
2019-04-09T22:22:09.221Z,34.98
2019-04-09T22:24:35.893Z,37.75
2019-04-09T22:27:02.397Z,32.93
2019-04-09T22:29:30.227Z,33.18
2019-04-09T22:31:57.468Z,33.90
2019-04-09T22:34:24.141Z,40.05
2019-04-09T22:36:50.867Z,34.50
2019-04-09T22:39:16.864Z,43.90
2019-04-09T22:41:43.172Z,39.70
2019-04-09T22:44:10.259Z,38.33
2019-04-09T22:46:36.324Z,39.42
2019-04-09T22:49:02.584Z,43.58
2019-04-09T22:51:28.778Z,40.88
2019-04-09T22:53:57.788Z,37.42
2019-04-09T22:56:23.901Z,45.23
2019-04-09T22:58:53.295Z,30.92
2019-04-09T23:01:26.711Z,39.95
2019-04-09T23:04:13.782Z,47.10
2019-04-09T23:06:48.374Z,44.38
2019-04-09T23:09:18.780Z,44.85
2019-04-09T23:11:49.655Z,48.68
2019-04-09T23:14:16.518Z,44.98
2019-04-09T23:16:43.439Z,47.70
2019-04-09T23:19:10.384Z,46.45
2019-04-09T23:21:36.433Z,51.02
2019-04-09T23:24:02.349Z,53.30
2019-04-09T23:26:28.167Z,53.13
2019-04-09T23:28:54.281Z,55.27
2019-04-09T23:31:20.884Z,54.20
2019-04-09T23:33:46.916Z,57.20
2019-04-09T23:36:13.810Z,57.17
2019-04-09T23:38:41.037Z,56.63
2019-04-09T23:41:08.033Z,56.45
2019-04-09T23:43:35.144Z,57.03
2019-04-09T23:46:01.708Z,62.00
2019-04-09T23:48:28.333Z,63.45
2019-04-09T23:50:54.296Z,56.68
2019-04-09T23:53:21.146Z,57.67
2019-04-09T23:55:47.146Z,63.23
2019-04-09T23:58:13.263Z,55.00
